sensor_id;sensor_type;location;lat;lon;timestamp;pressure;altitude;pressure_sealevel;temperature;humidity
9764;BME280;4921;43.214;27.936;2024-03-29T00:02:01;100535.31;;;13.71;64.33
9764;BME280;4921;43.214;27.936;2024-03-29T00:04:27;100537.75;;;13.76;64.08
9764;BME280;4921;43.214;27.936;2024-03-29T00:06:52;100542.88;;;13.74;64.53
9764;BME280;4921;43.214;27.936;2024-03-29T00:09:18;100547.66;;;13.77;64.13
9764;BME280;4921;43.214;27.936;2024-03-29T00:11:43;100542.88;;;13.74;64.34
9764;BME280;4921;43.214;27.936;2024-03-29T00:14:09;100546.09;;;13.80;64.46
9764;BME280;4921;43.214;27.936;2024-03-29T00:16:34;100547.34;;;13.82;64.61
9764;BME280;4921;43.214;27.936;2024-03-29T00:19:00;100546.16;;;13.83;64.49
9764;BME280;4921;43.214;27.936;2024-03-29T00:21:25;100545.41;;;13.86;64.16
9764;BME280;4921;43.214;27.936;2024-03-29T00:23:51;100548.91;;;13.83;64.41
9764;BME280;4921;43.214;27.936;2024-03-29T00:26:16;100559.72;;;13.92;64.61
9764;BME280;4921;43.214;27.936;2024-03-29T00:28:42;100559.78;;;13.95;64.77
9764;BME280;4921;43.214;27.936;2024-03-29T00:31:08;100558.06;;;13.87;64.59
9764;BME280;4921;43.214;27.936;2024-03-29T00:33:33;100565.22;;;13.88;64.66
9764;BME280;4921;43.214;27.936;2024-03-29T00:35:59;100559.25;;;13.86;65.05
9764;BME280;4921;43.214;27.936;2024-03-29T00:38:24;100576.78;;;13.97;64.86
9764;BME280;4921;43.214;27.936;2024-03-29T00:40:50;100576.78;;;13.97;65.72
9764;BME280;4921;43.214;27.936;2024-03-29T00:43:16;100575.31;;;14.03;65.71
9764;BME280;4921;43.214;27.936;2024-03-29T00:45:41;100583.66;;;14.07;65.20
9764;BME280;4921;43.214;27.936;2024-03-29T00:48:07;100577.34;;;14.10;64.74
9764;BME280;4921;43.214;27.936;2024-03-29T00:50:32;100574.63;;;14.13;64.65
9764;BME280;4921;43.214;27.936;2024-03-29T00:52:59;100566.34;;;14.13;64.47
9764;BME280;4921;43.214;27.936;2024-03-29T00:55:25;100569.91;;;14.14;64.22
9764;BME280;4921;43.214;27.936;2024-03-29T00:57:50;100571.88;;;14.13;64.63
9764;BME280;4921;43.214;27.936;2024-03-29T01:00:16;100566.47;;;14.24;64.28
9764;BME280;4921;43.214;27.936;2024-03-29T01:02:41;100571.31;;;14.27;63.68
9764;BME280;4921;43.214;27.936;2024-03-29T01:05:07;100555.34;;;14.20;63.95
9764;BME280;4921;43.214;27.936;2024-03-29T01:07:33;100554.56;;;14.20;64.01
9764;BME280;4921;43.214;27.936;2024-03-29T01:09:59;100557.78;;;14.25;64.23
9764;BME280;4921;43.214;27.936;2024-03-29T01:12:25;100557.38;;;14.23;64.60
9764;BME280;4921;43.214;27.936;2024-03-29T01:14:51;100544.69;;;14.22;64.49
9764;BME280;4921;43.214;27.936;2024-03-29T01:17:16;100538.34;;;14.22;65.49
9764;BME280;4921;43.214;27.936;2024-03-29T01:19:42;100541.63;;;14.27;65.21
9764;BME280;4921;43.214;27.936;2024-03-29T01:22:07;100546.09;;;14.35;65.13
9764;BME280;4921;43.214;27.936;2024-03-29T01:24:33;100545.25;;;14.31;65.59
9764;BME280;4921;43.214;27.936;2024-03-29T01:26:59;100546.88;;;14.36;65.04
9764;BME280;4921;43.214;27.936;2024-03-29T01:29:25;100557.72;;;14.48;64.51
9764;BME280;4921;43.214;27.936;2024-03-29T01:31:50;100556.53;;;14.49;64.67
9764;BME280;4921;43.214;27.936;2024-03-29T01:34:16;100557.78;;;14.55;64.84
9764;BME280;4921;43.214;27.936;2024-03-29T01:36:42;100557.84;;;14.59;64.56
9764;BME280;4921;43.214;27.936;2024-03-29T01:39:07;100551.06;;;14.56;64.36
9764;BME280;4921;43.214;27.936;2024-03-29T01:41:35;100569.00;;;14.66;64.60
9764;BME280;4921;43.214;27.936;2024-03-29T01:44:01;100567.81;;;14.67;64.29
9764;BME280;4921;43.214;27.936;2024-03-29T01:46:26;100581.28;;;14.68;64.08
9764;BME280;4921;43.214;27.936;2024-03-29T01:48:53;100584.44;;;14.67;63.99
9764;BME280;4921;43.214;27.936;2024-03-29T01:51:21;100585.97;;;14.64;62.96
9764;BME280;4921;43.214;27.936;2024-03-29T01:53:47;100598.63;;;14.62;62.58
9764;BME280;4921;43.214;27.936;2024-03-29T01:56:15;100602.91;;;14.56;62.03
9764;BME280;4921;43.214;27.936;2024-03-29T01:58:41;100611.13;;;14.49;62.06
9764;BME280;4921;43.214;27.936;2024-03-29T02:01:11;100613.38;;;14.39;61.68
9764;BME280;4921;43.214;27.936;2024-03-29T02:03:37;100600.69;;;14.35;62.58
9764;BME280;4921;43.214;27.936;2024-03-29T02:06:03;100598.28;;;14.33;62.29
9764;BME280;4921;43.214;27.936;2024-03-29T02:08:30;100607.78;;;14.36;62.42
9764;BME280;4921;43.214;27.936;2024-03-29T02:10:56;100597.16;;;14.38;63.24
9764;BME280;4921;43.214;27.936;2024-03-29T02:13:23;100602.69;;;14.38;62.99
9764;BME280;4921;43.214;27.936;2024-03-29T02:15:48;100608.22;;;14.38;63.38
9764;BME280;4921;43.214;27.936;2024-03-29T02:18:14;100607.44;;;14.37;63.43
9764;BME280;4921;43.214;27.936;2024-03-29T02:20:39;100607.78;;;14.36;63.66
9764;BME280;4921;43.214;27.936;2024-03-29T02:23:27;100600.69;;;14.35;64.05
9764;BME280;4921;43.214;27.936;2024-03-29T02:25:55;100615.03;;;14.44;64.34
9764;BME280;4921;43.214;27.936;2024-03-29T02:28:22;100625.75;;;14.46;64.75
9764;BME280;4921;43.214;27.936;2024-03-29T02:30:49;100632.28;;;14.30;67.29
9764;BME280;4921;43.214;27.936;2024-03-29T02:33:14;100633.53;;;14.10;65.90
9764;BME280;4921;43.214;27.936;2024-03-29T02:35:40;100631.94;;;13.83;66.47
9764;BME280;4921;43.214;27.936;2024-03-29T02:38:05;100641.63;;;13.96;65.96
9764;BME280;4921;43.214;27.936;2024-03-29T02:40:31;100636.22;;;14.03;65.64
9764;BME280;4921;43.214;27.936;2024-03-29T02:42:56;100643.13;;;14.16;64.63
9764;BME280;4921;43.214;27.936;2024-03-29T02:45:22;100645.91;;;14.16;64.62
9764;BME280;4921;43.214;27.936;2024-03-29T02:47:47;100644.63;;;14.10;64.84
9764;BME280;4921;43.214;27.936;2024-03-29T02:50:14;100659.25;;;14.11;64.92
9764;BME280;4921;43.214;27.936;2024-03-29T02:52:40;100656.44;;;14.07;64.58
9764;BME280;4921;43.214;27.936;2024-03-29T02:55:06;100658.72;;;14.02;64.65
9764;BME280;4921;43.214;27.936;2024-03-29T02:57:32;100671.50;;;13.84;65.15
9764;BME280;4921;43.214;27.936;2024-03-29T02:59:57;100665.94;;;13.35;67.11
9764;BME280;4921;43.214;27.936;2024-03-29T03:02:23;100673.06;;;13.36;66.67
9764;BME280;4921;43.214;27.936;2024-03-29T03:04:48;100666.50;;;13.44;65.81
9764;BME280;4921;43.214;27.936;2024-03-29T03:07:14;100669.94;;;13.38;64.83
9764;BME280;4921;43.214;27.936;2024-03-29T03:09:58;100647.91;;;13.22;64.60
9764;BME280;4921;43.214;27.936;2024-03-29T03:12:55;100674.09;;;13.28;64.41
9764;BME280;4921;43.214;27.936;2024-03-29T03:15:21;100674.34;;;13.19;64.49
9764;BME280;4921;43.214;27.936;2024-03-29T03:17:46;100669.19;;;13.18;64.61
9764;BME280;4921;43.214;27.936;2024-03-29T03:20:12;100647.25;;;13.06;64.64
9764;BME280;4921;43.214;27.936;2024-03-29T03:22:39;100669.06;;;13.11;65.12
9764;BME280;4921;43.214;27.936;2024-03-29T03:25:05;100676.53;;;13.10;64.93
9764;BME280;4921;43.214;27.936;2024-03-29T03:27:30;100673.34;;;13.08;65.18
9764;BME280;4921;43.214;27.936;2024-03-29T03:29:56;100666.59;;;13.06;65.92
9764;BME280;4921;43.214;27.936;2024-03-29T03:32:21;100674.50;;;13.07;66.10
9764;BME280;4921;43.214;27.936;2024-03-29T03:34:47;100672.53;;;13.08;65.72
9764;BME280;4921;43.214;27.936;2024-03-29T03:37:12;100671.44;;;13.12;65.73
9764;BME280;4921;43.214;27.936;2024-03-29T03:39:38;100674.28;;;13.16;65.44
9764;BME280;4921;43.214;27.936;2024-03-29T03:42:03;100665.91;;;13.12;65.75
9764;BME280;4921;43.214;27.936;2024-03-29T03:44:29;100673.53;;;13.00;66.03
9764;BME280;4921;43.214;27.936;2024-03-29T03:46:55;100660.63;;;13.04;65.80
9764;BME280;4921;43.214;27.936;2024-03-29T03:49:20;100682.50;;;13.12;66.15
9764;BME280;4921;43.214;27.936;2024-03-29T03:51:46;100687.00;;;13.20;66.29
9764;BME280;4921;43.214;27.936;2024-03-29T03:54:11;100686.69;;;13.25;66.55
9764;BME280;4921;43.214;27.936;2024-03-29T03:56:37;100685.84;;;13.21;67.34
9764;BME280;4921;43.214;27.936;2024-03-29T03:59:02;100686.75;;;13.29;66.58
9764;BME280;4921;43.214;27.936;2024-03-29T04:01:28;100685.91;;;13.25;67.07
9764;BME280;4921;43.214;27.936;2024-03-29T04:03:53;100694.25;;;13.28;67.08
9764;BME280;4921;43.214;27.936;2024-03-29T04:06:19;100690.25;;;13.26;67.04
9764;BME280;4921;43.214;27.936;2024-03-29T04:08:44;100710.63;;;13.37;67.29
9764;BME280;4921;43.214;27.936;2024-03-29T04:11:10;100711.44;;;13.38;67.58
9764;BME280;4921;43.214;27.936;2024-03-29T04:13:36;100719.28;;;13.36;67.16
9764;BME280;4921;43.214;27.936;2024-03-29T04:16:04;100705.69;;;13.27;67.74
9764;BME280;4921;43.214;27.936;2024-03-29T04:18:30;100712.25;;;13.19;68.50
9764;BME280;4921;43.214;27.936;2024-03-29T04:21:03;100721.22;;;13.12;68.21
9764;BME280;4921;43.214;27.936;2024-03-29T04:23:29;100722.16;;;13.20;68.11
9764;BME280;4921;43.214;27.936;2024-03-29T04:25:55;100723.81;;;13.24;67.25
9764;BME280;4921;43.214;27.936;2024-03-29T04:28:21;100736.31;;;13.38;67.19
9764;BME280;4921;43.214;27.936;2024-03-29T04:30:57;100731.94;;;13.37;66.90
9764;BME280;4921;43.214;27.936;2024-03-29T04:33:24;100728.34;;;13.36;66.95
9764;BME280;4921;43.214;27.936;2024-03-29T04:36:03;100738.78;;;13.43;66.34
9764;BME280;4921;43.214;27.936;2024-03-29T04:38:29;100741.59;;;13.46;66.55
9764;BME280;4921;43.214;27.936;2024-03-29T04:40:56;100736.72;;;13.59;66.44
9764;BME280;4921;43.214;27.936;2024-03-29T04:43:26;100741.56;;;13.65;66.29
9764;BME280;4921;43.214;27.936;2024-03-29T04:46:22;100746.66;;;13.63;66.03
9764;BME280;4921;43.214;27.936;2024-03-29T04:48:47;100747.03;;;13.62;66.08
9764;BME280;4921;43.214;27.936;2024-03-29T04:51:12;100745.72;;;13.56;66.12
9764;BME280;4921;43.214;27.936;2024-03-29T04:53:39;100753.06;;;13.67;66.38
9764;BME280;4921;43.214;27.936;2024-03-29T04:56:05;100745.13;;;13.66;66.58
9764;BME280;4921;43.214;27.936;2024-03-29T04:58:31;100760.19;;;13.68;66.69
9764;BME280;4921;43.214;27.936;2024-03-29T05:00:57;100758.22;;;13.91;66.11
9764;BME280;4921;43.214;27.936;2024-03-29T05:03:23;100759.19;;;14.02;65.75
9764;BME280;4921;43.214;27.936;2024-03-29T05:05:50;100777.69;;;14.21;65.76
9764;BME280;4921;43.214;27.936;2024-03-29T05:08:16;100773.66;;;14.37;64.74
9764;BME280;4921;43.214;27.936;2024-03-29T05:10:44;100778.22;;;14.53;64.51
9764;BME280;4921;43.214;27.936;2024-03-29T05:13:10;100778.41;;;14.67;64.67
9764;BME280;4921;43.214;27.936;2024-03-29T05:15:35;100785.34;;;14.80;64.00
9764;BME280;4921;43.214;27.936;2024-03-29T05:18:02;100768.81;;;14.87;64.07
9764;BME280;4921;43.214;27.936;2024-03-29T05:20:27;100790.41;;;15.04;63.87
9764;BME280;4921;43.214;27.936;2024-03-29T05:22:53;100800.28;;;15.34;62.15
9764;BME280;4921;43.214;27.936;2024-03-29T05:25:18;100785.91;;;15.55;61.23
9764;BME280;4921;43.214;27.936;2024-03-29T05:27:44;100799.22;;;15.79;61.62
9764;BME280;4921;43.214;27.936;2024-03-29T05:30:09;100814.91;;;16.01;59.83
9764;BME280;4921;43.214;27.936;2024-03-29T05:32:36;100816.75;;;16.27;60.20
9764;BME280;4921;43.214;27.936;2024-03-29T05:35:01;100823.69;;;16.50;58.92
9764;BME280;4921;43.214;27.936;2024-03-29T05:37:27;100830.56;;;16.67;57.59
9764;BME280;4921;43.214;27.936;2024-03-29T05:39:53;100832.22;;;16.79;57.46
9764;BME280;4921;43.214;27.936;2024-03-29T05:42:30;100837.41;;;16.84;55.60
9764;BME280;4921;43.214;27.936;2024-03-29T05:44:56;100849.00;;;16.93;57.12
9764;BME280;4921;43.214;27.936;2024-03-29T05:47:22;100853.44;;;17.01;55.50
9764;BME280;4921;43.214;27.936;2024-03-29T05:49:48;100860.25;;;17.14;55.48
9764;BME280;4921;43.214;27.936;2024-03-29T05:52:14;100854.69;;;17.14;54.68
9764;BME280;4921;43.214;27.936;2024-03-29T05:54:40;100862.69;;;17.22;54.96
9764;BME280;4921;43.214;27.936;2024-03-29T05:57:06;100869.88;;;17.27;54.17
9764;BME280;4921;43.214;27.936;2024-03-29T05:59:32;100867.88;;;17.31;54.15
9764;BME280;4921;43.214;27.936;2024-03-29T06:01:58;100863.91;;;17.25;53.47
9764;BME280;4921;43.214;27.936;2024-03-29T06:04:23;100866.72;;;17.35;53.67
9764;BME280;4921;43.214;27.936;2024-03-29T06:07:01;100873.53;;;17.45;53.67
9764;BME280;4921;43.214;27.936;2024-03-29T06:09:27;100872.78;;;17.48;52.68
9764;BME280;4921;43.214;27.936;2024-03-29T06:11:54;100886.72;;;17.48;53.23
9764;BME280;4921;43.214;27.936;2024-03-29T06:14:20;100889.91;;;17.50;53.15
9764;BME280;4921;43.214;27.936;2024-03-29T06:17:04;100888.31;;;17.56;52.73
9764;BME280;4921;43.214;27.936;2024-03-29T06:19:51;100888.75;;;17.65;52.13
9764;BME280;4921;43.214;27.936;2024-03-29T06:22:20;100878.84;;;17.71;51.67
9764;BME280;4921;43.214;27.936;2024-03-29T06:24:46;100894.81;;;17.92;51.66
9764;BME280;4921;43.214;27.936;2024-03-29T06:27:13;100891.28;;;18.05;51.97
9764;BME280;4921;43.214;27.936;2024-03-29T06:29:43;100890.88;;;18.10;50.87
9764;BME280;4921;43.214;27.936;2024-03-29T06:32:09;100902.88;;;18.35;51.26
9764;BME280;4921;43.214;27.936;2024-03-29T06:34:35;100899.31;;;18.52;50.08
9764;BME280;4921;43.214;27.936;2024-03-29T06:37:01;100907.69;;;18.66;49.94
9764;BME280;4921;43.214;27.936;2024-03-29T06:39:26;100914.88;;;18.82;49.53
9764;BME280;4921;43.214;27.936;2024-03-29T06:41:52;100909.66;;;19.05;48.60
9764;BME280;4921;43.214;27.936;2024-03-29T06:44:18;100917.19;;;19.29;48.14
9764;BME280;4921;43.214;27.936;2024-03-29T06:46:43;100920.75;;;19.47;47.95
9764;BME280;4921;43.214;27.936;2024-03-29T06:49:09;100924.69;;;19.67;45.80
9764;BME280;4921;43.214;27.936;2024-03-29T06:51:34;100921.84;;;19.74;45.76
9764;BME280;4921;43.214;27.936;2024-03-29T06:54:00;100926.94;;;19.97;44.61
9764;BME280;4921;43.214;27.936;2024-03-29T06:56:25;100932.41;;;20.21;43.81
9764;BME280;4921;43.214;27.936;2024-03-29T06:58:51;100926.25;;;20.47;43.88
9764;BME280;4921;43.214;27.936;2024-03-29T07:01:16;100930.81;;;20.75;42.84
9764;BME280;4921;43.214;27.936;2024-03-29T07:03:42;100925.44;;;20.98;42.74
9764;BME280;4921;43.214;27.936;2024-03-29T07:06:07;100929.16;;;21.29;41.38
9764;BME280;4921;43.214;27.936;2024-03-29T07:08:33;100923.72;;;21.52;40.01
9764;BME280;4921;43.214;27.936;2024-03-29T07:11:02;100928.50;;;21.88;37.96
9764;BME280;4921;43.214;27.936;2024-03-29T07:13:29;100937.19;;;22.28;38.46
9764;BME280;4921;43.214;27.936;2024-03-29T07:15:57;100943.91;;;22.60;37.35
9764;BME280;4921;43.214;27.936;2024-03-29T07:18:22;100933.31;;;22.94;37.50
9764;BME280;4921;43.214;27.936;2024-03-29T07:20:49;100949.25;;;23.24;35.34
9764;BME280;4921;43.214;27.936;2024-03-29T07:23:14;100957.31;;;23.45;34.86
9764;BME280;4921;43.214;27.936;2024-03-29T07:25:40;100945.28;;;23.64;34.17
9764;BME280;4921;43.214;27.936;2024-03-29T07:28:06;100941.16;;;23.88;31.50
9764;BME280;4921;43.214;27.936;2024-03-29T07:30:32;100957.09;;;24.15;32.28
9764;BME280;4921;43.214;27.936;2024-03-29T07:32:57;100952.16;;;24.38;31.72
9764;BME280;4921;43.214;27.936;2024-03-29T07:35:23;100949.78;;;24.53;28.78
9764;BME280;4921;43.214;27.936;2024-03-29T07:37:49;100958.03;;;24.79;29.44
9764;BME280;4921;43.214;27.936;2024-03-29T07:40:16;100956.78;;;24.96;29.62
9764;BME280;4921;43.214;27.936;2024-03-29T07:42:42;100966.09;;;25.26;30.86
9764;BME280;4921;43.214;27.936;2024-03-29T07:45:08;100971.84;;;25.38;26.70
9764;BME280;4921;43.214;27.936;2024-03-29T07:47:33;100958.13;;;25.53;26.22
9764;BME280;4921;43.214;27.936;2024-03-29T07:49:59;100961.72;;;25.69;26.41
9764;BME280;4921;43.214;27.936;2024-03-29T07:52:25;100958.94;;;25.82;25.88
9764;BME280;4921;43.214;27.936;2024-03-29T07:54:50;100956.88;;;25.82;25.93
9764;BME280;4921;43.214;27.936;2024-03-29T07:57:16;100955.94;;;26.01;26.11
9764;BME280;4921;43.214;27.936;2024-03-29T07:59:42;100962.41;;;26.14;24.86
9764;BME280;4921;43.214;27.936;2024-03-29T08:02:08;100963.00;;;26.22;24.87
9764;BME280;4921;43.214;27.936;2024-03-29T08:04:34;100965.81;;;26.22;24.04
9764;BME280;4921;43.214;27.936;2024-03-29T08:07:00;100980.63;;;26.26;25.43
9764;BME280;4921;43.214;27.936;2024-03-29T08:09:25;100972.47;;;26.28;24.23
9764;BME280;4921;43.214;27.936;2024-03-29T08:11:51;100975.44;;;26.50;24.17
9764;BME280;4921;43.214;27.936;2024-03-29T08:14:16;100963.47;;;26.46;24.35
9764;BME280;4921;43.214;27.936;2024-03-29T08:16:42;100966.53;;;26.64;24.77
9764;BME280;4921;43.214;27.936;2024-03-29T08:19:08;100964.53;;;26.77;24.04
9764;BME280;4921;43.214;27.936;2024-03-29T08:21:34;100968.91;;;26.90;24.93
9764;BME280;4921;43.214;27.936;2024-03-29T08:23:59;100964.22;;;27.09;23.63
9764;BME280;4921;43.214;27.936;2024-03-29T08:26:26;100962.41;;;27.15;23.39
9764;BME280;4921;43.214;27.936;2024-03-29T08:28:54;100971.91;;;27.21;23.71
9764;BME280;4921;43.214;27.936;2024-03-29T08:31:19;100955.09;;;27.05;25.02
9764;BME280;4921;43.214;27.936;2024-03-29T08:33:45;100970.06;;;27.27;23.90
9764;BME280;4921;43.214;27.936;2024-03-29T08:36:10;100963.09;;;27.32;22.32
9764;BME280;4921;43.214;27.936;2024-03-29T08:38:37;100967.16;;;27.31;22.59
9764;BME280;4921;43.214;27.936;2024-03-29T08:41:06;100960.78;;;27.39;24.26
9764;BME280;4921;43.214;27.936;2024-03-29T08:43:33;100950.84;;;27.35;23.43
9764;BME280;4921;43.214;27.936;2024-03-29T08:45:58;100949.88;;;27.50;23.75
9764;BME280;4921;43.214;27.936;2024-03-29T08:48:24;100943.16;;;27.57;22.97
9764;BME280;4921;43.214;27.936;2024-03-29T08:50:50;100952.53;;;27.66;23.86
9764;BME280;4921;43.214;27.936;2024-03-29T08:53:16;100951.28;;;27.67;24.05
9764;BME280;4921;43.214;27.936;2024-03-29T08:55:41;100967.91;;;27.44;23.16
9764;BME280;4921;43.214;27.936;2024-03-29T08:58:07;100956.19;;;27.33;23.65
9764;BME280;4921;43.214;27.936;2024-03-29T09:00:32;100966.03;;;27.15;23.19
9764;BME280;4921;43.214;27.936;2024-03-29T09:02:58;100957.56;;;27.15;23.57
9764;BME280;4921;43.214;27.936;2024-03-29T09:05:25;100952.31;;;27.26;23.46
9764;BME280;4921;43.214;27.936;2024-03-29T09:07:53;100961.13;;;27.41;23.23
9764;BME280;4921;43.214;27.936;2024-03-29T09:10:19;100963.22;;;27.50;22.75
9764;BME280;4921;43.214;27.936;2024-03-29T09:12:44;100956.94;;;27.67;22.38
9764;BME280;4921;43.214;27.936;2024-03-29T09:15:10;100946.03;;;27.78;22.26
9764;BME280;4921;43.214;27.936;2024-03-29T09:17:42;100940.69;;;27.80;23.26
9764;BME280;4921;43.214;27.936;2024-03-29T09:20:08;100942.47;;;27.87;25.65
9764;BME280;4921;43.214;27.936;2024-03-29T09:22:34;100938.47;;;27.97;25.23
9764;BME280;4921;43.214;27.936;2024-03-29T09:25:00;100948.88;;;28.00;24.33
9764;BME280;4921;43.214;27.936;2024-03-29T09:27:27;100947.09;;;27.93;25.28
9764;BME280;4921;43.214;27.936;2024-03-29T09:29:52;100938.69;;;27.90;23.78
9764;BME280;4921;43.214;27.936;2024-03-29T09:32:18;100951.97;;;27.93;22.23
9764;BME280;4921;43.214;27.936;2024-03-29T09:34:45;100946.84;;;27.88;21.55
9764;BME280;4921;43.214;27.936;2024-03-29T09:37:11;100941.19;;;27.88;22.28
9764;BME280;4921;43.214;27.936;2024-03-29T09:39:36;100941.31;;;27.84;23.23
9764;BME280;4921;43.214;27.936;2024-03-29T09:42:02;100951.63;;;27.91;22.51
9764;BME280;4921;43.214;27.936;2024-03-29T09:44:33;100944.34;;;27.90;22.91
9764;BME280;4921;43.214;27.936;2024-03-29T09:47:04;100946.63;;;27.95;22.28
9764;BME280;4921;43.214;27.936;2024-03-29T09:49:31;100937.81;;;27.93;22.11
9764;BME280;4921;43.214;27.936;2024-03-29T09:52:00;100936.75;;;27.99;22.57
9764;BME280;4921;43.214;27.936;2024-03-29T09:54:28;100942.13;;;27.85;22.23
9764;BME280;4921;43.214;27.936;2024-03-29T09:56:55;100942.78;;;27.89;22.11
9764;BME280;4921;43.214;27.936;2024-03-29T09:59:21;100942.00;;;27.88;21.75
9764;BME280;4921;43.214;27.936;2024-03-29T10:01:48;100940.66;;;27.93;21.93
9764;BME280;4921;43.214;27.936;2024-03-29T10:04:15;100933.94;;;27.99;22.29
9764;BME280;4921;43.214;27.936;2024-03-29T10:06:44;100955.31;;;28.00;22.20
9764;BME280;4921;43.214;27.936;2024-03-29T10:09:11;100942.66;;;28.14;21.90
9764;BME280;4921;43.214;27.936;2024-03-29T10:11:37;100938.56;;;28.15;22.82
9764;BME280;4921;43.214;27.936;2024-03-29T10:14:04;100927.75;;;28.22;22.59
9764;BME280;4921;43.214;27.936;2024-03-29T10:16:30;100941.69;;;28.39;22.49
9764;BME280;4921;43.214;27.936;2024-03-29T10:18:58;100935.94;;;28.51;21.75
9764;BME280;4921;43.214;27.936;2024-03-29T10:21:27;100932.81;;;28.58;21.84
9764;BME280;4921;43.214;27.936;2024-03-29T10:23:53;100935.06;;;28.63;22.25
9764;BME280;4921;43.214;27.936;2024-03-29T10:26:19;100933.81;;;28.73;21.65
9764;BME280;4921;43.214;27.936;2024-03-29T10:28:46;100935.72;;;28.85;22.25
9764;BME280;4921;43.214;27.936;2024-03-29T10:31:12;100921.59;;;29.03;21.99
9764;BME280;4921;43.214;27.936;2024-03-29T10:33:42;100921.03;;;29.17;22.49
9764;BME280;4921;43.214;27.936;2024-03-29T10:36:08;100914.41;;;29.20;21.11
9764;BME280;4921;43.214;27.936;2024-03-29T10:38:35;100904.31;;;29.10;21.95
9764;BME280;4921;43.214;27.936;2024-03-29T10:41:01;100896.44;;;29.14;21.77
9764;BME280;4921;43.214;27.936;2024-03-29T10:43:29;100900.22;;;29.29;20.85
9764;BME280;4921;43.214;27.936;2024-03-29T10:45:55;100909.50;;;29.30;20.99
9764;BME280;4921;43.214;27.936;2024-03-29T10:48:25;100912.16;;;29.06;21.96
9764;BME280;4921;43.214;27.936;2024-03-29T10:50:53;100919.44;;;29.25;22.31
9764;BME280;4921;43.214;27.936;2024-03-29T10:53:22;100915.97;;;29.49;21.76
9764;BME280;4921;43.214;27.936;2024-03-29T10:55:50;100899.56;;;29.62;20.89
9764;BME280;4921;43.214;27.936;2024-03-29T10:58:19;100909.03;;;29.77;20.92
9764;BME280;4921;43.214;27.936;2024-03-29T11:00:53;100915.34;;;29.63;19.33
9764;BME280;4921;43.214;27.936;2024-03-29T11:03:49;100912.81;;;29.56;20.54
9764;BME280;4921;43.214;27.936;2024-03-29T11:06:18;100925.41;;;29.64;19.29
9764;BME280;4921;43.214;27.936;2024-03-29T11:08:48;100927.16;;;29.34;19.13
9764;BME280;4921;43.214;27.936;2024-03-29T11:11:17;100925.09;;;29.16;20.48
9764;BME280;4921;43.214;27.936;2024-03-29T11:13:45;100935.66;;;29.25;19.81
9764;BME280;4921;43.214;27.936;2024-03-29T11:16:13;100941.75;;;28.96;21.03
9764;BME280;4921;43.214;27.936;2024-03-29T11:18:42;100940.38;;;29.10;20.84
9764;BME280;4921;43.214;27.936;2024-03-29T11:21:08;100939.25;;;28.98;20.34
9764;BME280;4921;43.214;27.936;2024-03-29T11:23:36;100930.28;;;29.09;20.03
9764;BME280;4921;43.214;27.936;2024-03-29T11:26:02;100919.69;;;29.00;20.11
9764;BME280;4921;43.214;27.936;2024-03-29T11:28:35;100927.88;;;29.07;19.92
9764;BME280;4921;43.214;27.936;2024-03-29T11:31:05;100919.06;;;28.96;20.49
9764;BME280;4921;43.214;27.936;2024-03-29T11:33:34;100934.03;;;29.06;20.23
9764;BME280;4921;43.214;27.936;2024-03-29T11:36:15;100926.94;;;29.01;20.08
9764;BME280;4921;43.214;27.936;2024-03-29T11:38:49;100923.16;;;28.95;20.46
9764;BME280;4921;43.214;27.936;2024-03-29T11:41:16;100923.78;;;28.99;21.51
9764;BME280;4921;43.214;27.936;2024-03-29T11:43:42;100923.91;;;28.78;20.86
9764;BME280;4921;43.214;27.936;2024-03-29T11:46:13;100918.44;;;28.92;21.66
9764;BME280;4921;43.214;27.936;2024-03-29T11:48:40;100925.97;;;28.95;21.28
9764;BME280;4921;43.214;27.936;2024-03-29T11:51:10;100916.84;;;29.00;19.87
9764;BME280;4921;43.214;27.936;2024-03-29T11:53:36;100917.66;;;29.01;21.32
9764;BME280;4921;43.214;27.936;2024-03-29T11:56:03;100916.56;;;29.07;20.91
9764;BME280;4921;43.214;27.936;2024-03-29T11:58:31;100906.78;;;28.99;20.17
9764;BME280;4921;43.214;27.936;2024-03-29T12:00:58;100915.47;;;29.05;21.11
9764;BME280;4921;43.214;27.936;2024-03-29T12:03:28;100914.66;;;29.04;20.19
9764;BME280;4921;43.214;27.936;2024-03-29T12:05:55;100916.88;;;28.91;19.91
9764;BME280;4921;43.214;27.936;2024-03-29T12:08:29;100925.19;;;28.86;20.21
9764;BME280;4921;43.214;27.936;2024-03-29T12:10:55;100913.94;;;28.64;20.10
9764;BME280;4921;43.214;27.936;2024-03-29T12:13:21;100929.38;;;28.63;20.39
9764;BME280;4921;43.214;27.936;2024-03-29T12:15:46;100927.78;;;28.62;20.80
9764;BME280;4921;43.214;27.936;2024-03-29T12:18:12;100929.69;;;28.56;21.04
9764;BME280;4921;43.214;27.936;2024-03-29T12:20:39;100915.25;;;28.42;21.52
9764;BME280;4921;43.214;27.936;2024-03-29T12:23:06;100907.22;;;28.40;20.96
9764;BME280;4921;43.214;27.936;2024-03-29T12:25:33;100908.97;;;28.47;22.41
9764;BME280;4921;43.214;27.936;2024-03-29T12:28:00;100916.50;;;28.41;21.57
9764;BME280;4921;43.214;27.936;2024-03-29T12:30:26;100913.38;;;28.39;20.35
9764;BME280;4921;43.214;27.936;2024-03-29T12:33:03;100904.81;;;28.29;20.79
9764;BME280;4921;43.214;27.936;2024-03-29T12:35:30;100907.75;;;28.17;21.75
9764;BME280;4921;43.214;27.936;2024-03-29T12:37:59;100915.63;;;28.22;20.56
9764;BME280;4921;43.214;27.936;2024-03-29T12:40:26;100906.00;;;28.10;20.11
9764;BME280;4921;43.214;27.936;2024-03-29T12:42:53;100903.31;;;28.07;20.19
9764;BME280;4921;43.214;27.936;2024-03-29T12:45:19;100897.78;;;28.03;21.61
9764;BME280;4921;43.214;27.936;2024-03-29T12:47:46;100908.31;;;28.03;21.07
9764;BME280;4921;43.214;27.936;2024-03-29T12:50:32;100904.72;;;27.90;20.88
9764;BME280;4921;43.214;27.936;2024-03-29T12:53:05;100901.72;;;27.84;21.04
9764;BME280;4921;43.214;27.936;2024-03-29T12:55:31;100901.91;;;27.90;22.28
9764;BME280;4921;43.214;27.936;2024-03-29T12:58:00;100903.31;;;27.85;20.94
9764;BME280;4921;43.214;27.936;2024-03-29T13:00:27;100906.94;;;27.86;21.85